Time;durP1;ratioP1;P1;durP2;ratioP2;P2;SDS_P1;SDS_P2;PMS_P1;PMS_P2;Temp;Humidity;BMP_temperature;BMP_pressure;BME280_temperature;BME280_humidity;BME280_pressure;Samples;Min_cycle;Max_cycle;Signal;HPM_P1;HPM_P2
2023/03/27 00:01:20;;;;;;;2.80;0.83;;;10.20;76.80;;;;;;4987389;28;20496;-80
2023/03/27 00:03:50;;;;;;;2.70;0.80;;;10.10;76.80;;;;;;4990743;28;20461;-80
2023/03/27 00:06:23;;;;;;;2.70;0.67;;;10.10;76.70;;;;;;4988703;28;20505;-80
2023/03/27 00:08:57;;;;;;;4.33;0.90;;;10.10;76.80;;;;;;4966877;28;20465;-82
2023/03/27 00:11:25;;;;;;;3.37;1.13;;;10.00;76.80;;;;;;4985100;28;20901;-80
2023/03/27 00:13:54;;;;;;;3.53;1.17;;;9.90;76.80;;;;;;4992186;28;20465;-79
2023/03/27 00:16:26;;;;;;;3.53;1.20;;;9.80;76.80;;;;;;4973022;28;20508;-79
2023/03/27 00:18:55;;;;;;;3.50;1.10;;;9.70;76.90;;;;;;4984958;28;20481;-79
2023/03/27 00:21:24;;;;;;;5.33;1.57;;;9.50;77.00;;;;;;4990544;28;20531;-80
2023/03/27 00:23:55;;;;;;;3.33;1.03;;;9.50;77.20;;;;;;4991507;28;20499;-79
2023/03/27 00:26:23;;;;;;;3.60;1.20;;;9.60;77.20;;;;;;4984689;28;20547;-78
2023/03/27 00:28:53;;;;;;;4.60;1.30;;;9.40;77.10;;;;;;4991723;28;20536;-79
2023/03/27 00:31:23;;;;;;;3.67;1.27;;;9.50;77.10;;;;;;4992436;28;20580;-79
2023/03/27 00:33:51;;;;;;;3.90;1.50;;;9.40;77.10;;;;;;4989444;28;20465;-78
2023/03/27 00:36:19;;;;;;;4.90;1.50;;;9.50;77.00;;;;;;4975093;28;20450;-79
2023/03/27 00:38:47;;;;;;;3.57;1.37;;;9.50;77.00;;;;;;4996244;28;20476;-79
2023/03/27 00:41:16;;;;;;;4.50;1.60;;;9.50;76.80;;;;;;4995337;28;20465;-80
2023/03/27 00:43:44;;;;;;;5.20;1.60;;;9.40;76.70;;;;;;4978119;28;20536;-79
2023/03/27 00:46:34;;;;;;;6.37;1.70;;;9.30;76.70;;;;;;4985303;28;20492;-78
2023/03/27 00:49:06;;;;;;;3.70;1.57;;;9.20;76.70;;;;;;4989478;28;20497;-80
2023/03/27 00:51:36;;;;;;;3.93;1.90;;;9.20;76.80;;;;;;4991944;28;20467;-79
2023/03/27 00:54:06;;;;;;;3.60;1.60;;;9.00;76.70;;;;;;4990794;28;20809;-79
2023/03/27 00:56:37;;;;;;;5.93;2.07;;;9.00;76.80;;;;;;4990223;28;20461;-79
2023/03/27 00:59:11;;;;;;;5.53;2.20;;;9.00;76.80;;;;;;4986936;28;20626;-79
2023/03/27 01:01:40;;;;;;;5.73;2.07;;;9.10;76.70;;;;;;4992023;28;20982;-79
2023/03/27 01:04:09;;;;;;;4.67;1.80;;;9.00;76.60;;;;;;4988617;28;20995;-79
2023/03/27 01:06:40;;;;;;;4.90;1.87;;;8.90;76.50;;;;;;4986344;28;20489;-79
2023/03/27 01:09:09;;;;;;;6.43;2.30;;;8.80;76.30;;;;;;4976676;28;20481;-79
2023/03/27 01:12:05;;;;;;;6.40;2.13;;;8.60;76.40;;;;;;4992081;28;20560;-79
2023/03/27 01:14:41;;;;;;;4.40;1.87;;;8.60;76.60;;;;;;4977777;28;20480;-79
2023/03/27 01:17:23;;;;;;;7.20;2.70;;;8.60;76.70;;;;;;4989442;28;20973;-79
2023/03/27 01:20:23;;;;;;;6.33;2.53;;;8.70;76.60;;;;;;4987694;28;20840;-81
2023/03/27 01:23:24;;;;;;;8.57;2.97;;;8.70;76.40;;;;;;4976259;28;21201;-80
2023/03/27 01:26:39;;;;;;;4.50;2.23;;;8.60;76.50;;;;;;4993484;28;20713;-80
2023/03/27 01:29:17;;;;;;;7.05;2.15;;;8.50;76.60;;;;;;4994668;28;21309;-80
2023/03/27 01:32:08;;;;;;;6.00;2.43;;;8.50;76.60;;;;;;4977778;28;20228;-80
2023/03/27 01:35:06;;;;;;;7.50;2.40;;;8.30;76.80;;;;;;4995942;28;20461;-80
2023/03/27 01:38:02;;;;;;;6.17;3.00;;;8.20;77.00;;;;;;4994561;28;20231;-80
2023/03/27 01:40:41;;;;;;;6.30;2.70;;;8.10;77.10;;;;;;4988974;28;20616;-82
2023/03/27 01:43:17;;;;;;;6.67;2.60;;;8.20;77.00;;;;;;4974635;28;20519;-81
2023/03/27 01:45:51;;;;;;;7.53;2.40;;;8.20;77.00;;;;;;4979687;28;20726;-81
2023/03/27 01:48:26;;;;;;;5.30;2.30;;;8.20;76.90;;;;;;4992048;28;20299;-80
2023/03/27 01:50:58;;;;;;;8.60;2.60;;;8.10;76.90;;;;;;4976265;28;20908;-80
2023/03/27 01:53:35;;;;;;;6.63;2.30;;;8.10;76.90;;;;;;4987758;28;20585;-79
2023/03/27 01:56:16;;;;;;;7.00;2.30;;;8.20;76.90;;;;;;4988043;28;20951;-80
2023/03/27 01:58:49;;;;;;;5.65;2.35;;;8.10;76.90;;;;;;4986830;28;20849;-80
2023/03/27 02:01:23;;;;;;;5.20;2.50;;;8.10;76.80;;;;;;4989194;28;20234;-80
2023/03/27 02:03:56;;;;;;;7.73;2.20;;;8.20;76.70;;;;;;4990939;28;20487;-79
2023/03/27 02:06:29;;;;;;;8.60;2.30;;;8.20;76.70;;;;;;4993686;28;20540;-82
2023/03/27 02:09:01;;;;;;;7.45;2.50;;;8.20;76.50;;;;;;4980044;28;20523;-81
2023/03/27 02:11:36;;;;;;;9.60;3.00;;;8.10;76.40;;;;;;4989429;28;20213;-81
2023/03/27 02:14:07;;;;;;;9.43;2.37;;;8.10;76.30;;;;;;4992525;28;20268;-81
2023/03/27 02:16:44;;;;;;;8.07;2.28;;;8.10;76.40;;;;;;4991140;28;20562;-81
2023/03/27 02:19:22;;;;;;;9.93;2.60;;;8.10;76.00;;;;;;4995338;28;20495;-81
2023/03/27 02:21:50;;;;;;;9.52;2.83;;;8.00;76.20;;;;;;4976979;28;20499;-81
2023/03/27 02:24:18;;;;;;;6.77;2.60;;;8.00;75.80;;;;;;4990596;28;20240;-82
2023/03/27 02:26:54;;;;;;;7.60;2.60;;;7.90;75.90;;;;;;4990248;28;20472;-81
2023/03/27 02:29:35;;;;;;;6.28;2.45;;;7.80;75.80;;;;;;4985206;28;20210;-81
2023/03/27 02:32:16;;;;;;;6.97;3.00;;;7.70;75.70;;;;;;4994882;28;20232;-81
2023/03/27 02:35:02;;;;;;;9.02;2.60;;;7.70;75.80;;;;;;4994377;28;20536;-79
2023/03/27 02:37:40;;;;;;;8.70;3.00;;;7.40;75.40;;;;;;4992194;28;20327;-79
2023/03/27 02:40:28;;;;;;;10.43;3.08;;;7.40;75.80;;;;;;4989383;28;20233;-79
2023/03/27 02:43:18;;;;;;;7.50;3.40;;;7.40;75.80;;;;;;4987443;28;20213;-79
2023/03/27 02:45:54;;;;;;;9.85;3.25;;;7.40;76.10;;;;;;4990329;28;20208;-79
2023/03/27 02:48:30;;;;;;;7.65;2.75;;;7.30;75.90;;;;;;4991236;28;20213;-78
2023/03/27 02:51:04;;;;;;;12.90;3.50;;;7.20;75.90;;;;;;4992568;28;20224;-78
2023/03/27 02:53:37;;;;;;;11.40;3.33;;;7.30;75.90;;;;;;4992201;28;20212;-78
2023/03/27 02:56:07;;;;;;;14.07;4.53;;;7.20;75.90;;;;;;4987620;28;20205;-79
2023/03/27 02:58:43;;;;;;;10.27;2.40;;;7.20;76.00;;;;;;4988062;28;20225;-78
2023/03/27 03:01:32;;;;;;;7.07;2.83;;;7.10;76.20;;;;;;4992272;28;20480;-79
2023/03/27 03:04:17;;;;;;;11.88;2.80;;;7.10;76.30;;;;;;4993185;28;20216;-79
2023/03/27 03:07:05;;;;;;;7.28;2.50;;;7.10;76.40;;;;;;4990994;28;20263;-79
2023/03/27 03:09:34;;;;;;;8.40;2.70;;;7.20;76.40;;;;;;4975761;28;20208;-80
2023/03/27 03:12:08;;;;;;;7.65;2.65;;;7.20;76.50;;;;;;4989401;28;20571;-80
2023/03/27 03:14:43;;;;;;;11.55;2.90;;;7.30;76.40;;;;;;4977146;28;20227;-79
2023/03/27 03:17:12;;;;;;;7.18;3.15;;;7.20;76.30;;;;;;4982641;28;20476;-79
2023/03/27 03:19:40;;;;;;;9.68;3.15;;;7.20;76.30;;;;;;4996405;28;20891;-79
2023/03/27 03:22:09;;;;;;;6.72;2.80;;;7.20;76.30;;;;;;4990222;28;20222;-79
2023/03/27 03:24:41;;;;;;;8.65;3.13;;;7.20;76.30;;;;;;4992009;28;20222;-79
2023/03/27 03:27:13;;;;;;;10.20;3.35;;;7.20;76.20;;;;;;4995278;28;20221;-80
2023/03/27 03:29:52;;;;;;;11.20;3.40;;;7.20;76.10;;;;;;4989270;28;20238;-80
2023/03/27 03:32:23;;;;;;;10.93;3.55;;;7.20;76.00;;;;;;5004405;28;20283;-79
2023/03/27 03:34:52;;;;;;;11.00;3.75;;;7.20;76.00;;;;;;5000256;28;20208;-79
2023/03/27 03:37:21;;;;;;;10.35;3.67;;;7.00;75.90;;;;;;5005832;28;20206;-80
2023/03/27 03:39:49;;;;;;;11.73;3.50;;;6.90;76.00;;;;;;4990252;28;20728;-80
2023/03/27 03:42:18;;;;;;;8.55;3.20;;;6.80;76.20;;;;;;5007132;28;20212;-80
2023/03/27 03:44:52;;;;;;;12.38;3.25;;;6.80;76.20;;;;;;4994315;28;20203;-80
2023/03/27 03:47:22;;;;;;;17.25;4.10;;;6.90;76.20;;;;;;4992767;28;20207;-80
2023/03/27 03:49:50;;;;;;;16.15;3.80;;;6.90;76.20;;;;;;5009531;28;20233;-80
2023/03/27 03:52:18;;;;;;;18.17;3.92;;;6.90;76.30;;;;;;4993017;28;20213;-79
2023/03/27 03:54:46;;;;;;;7.05;3.00;;;7.00;75.90;;;;;;4990933;28;20976;-79
2023/03/27 03:57:14;;;;;;;9.10;3.50;;;6.90;75.20;;;;;;5004389;28;20221;-79
2023/03/27 03:59:48;;;;;;;7.22;2.95;;;6.90;75.30;;;;;;4992383;28;20619;-81
2023/03/27 04:02:49;;;;;;;11.75;3.60;;;6.90;75.50;;;;;;5017252;28;20217;-79
2023/03/27 04:05:17;;;;;;;10.95;3.10;;;7.00;75.50;;;;;;4995078;28;20214;-79
2023/03/27 04:07:46;;;;;;;15.88;3.60;;;7.00;75.30;;;;;;5010562;28;20208;-79
2023/03/27 04:10:38;;;;;;;14.50;3.58;;;7.00;75.00;;;;;;5004211;28;20208;-79
2023/03/27 04:13:13;;;;;;;8.00;2.70;;;7.00;75.00;;;;;;5019189;28;20236;-79
2023/03/27 04:15:52;;;;;;;16.17;4.78;;;7.00;74.80;;;;;;4993068;28;20393;-79
2023/03/27 04:18:31;;;;;;;9.57;3.22;;;7.00;74.70;;;;;;4992979;28;20260;-79
2023/03/27 04:21:02;;;;;;;14.65;3.85;;;7.00;74.70;;;;;;4999539;28;20308;-79
2023/03/27 04:23:32;;;;;;;7.72;3.70;;;7.00;74.40;;;;;;5004337;28;20208;-79
2023/03/27 04:26:02;;;;;;;10.50;3.15;;;7.00;74.40;;;;;;5013486;28;20254;-79
2023/03/27 04:28:50;;;;;;;9.45;3.35;;;7.00;74.30;;;;;;5018395;28;20351;-79
2023/03/27 04:31:37;;;;;;;13.00;3.70;;;6.90;73.70;;;;;;5011834;28;20237;-79
2023/03/27 04:34:27;;;;;;;14.23;3.70;;;6.90;73.90;;;;;;5012337;28;20289;-78
2023/03/27 04:37:14;;;;;;;9.35;3.38;;;6.90;73.70;;;;;;5005777;28;20265;-79
2023/03/27 04:39:55;;;;;;;13.00;3.67;;;6.80;73.60;;;;;;5015762;28;20226;-79
2023/03/27 04:42:23;;;;;;;12.13;4.25;;;6.80;73.30;;;;;;5014057;28;20701;-79
2023/03/27 04:44:52;;;;;;;8.23;3.67;;;6.70;73.10;;;;;;4999001;28;20207;-79
2023/03/27 04:47:20;;;;;;;12.60;5.63;;;6.60;72.80;;;;;;5004879;28;20212;-79
2023/03/27 04:49:53;;;;;;;8.10;3.60;;;6.50;72.80;;;;;;4997472;28;20221;-79
2023/03/27 04:52:25;;;;;;;10.52;3.88;;;6.50;73.00;;;;;;5016366;28;20198;-80
2023/03/27 04:54:53;;;;;;;12.10;3.70;;;6.50;73.00;;;;;;5015474;28;20199;-79
2023/03/27 04:57:25;;;;;;;9.98;3.58;;;6.40;72.90;;;;;;4998247;28;20210;-79
2023/03/27 04:59:54;;;;;;;10.63;3.78;;;6.40;72.90;;;;;;5016650;28;20314;-79
2023/03/27 05:02:43;;;;;;;11.98;3.90;;;6.40;72.80;;;;;;5017705;28;20232;-80
2023/03/27 05:05:18;;;;;;;10.88;3.50;;;6.40;72.90;;;;;;5014612;28;20225;-80
2023/03/27 05:07:47;;;;;;;12.23;4.75;;;6.40;73.10;;;;;;5005353;28;20209;-81
2023/03/27 05:10:21;;;;;;;6.30;3.70;;;6.50;73.00;;;;;;5000155;28;20307;-82
2023/03/27 05:12:53;;;;;;;9.30;3.50;;;6.50;72.90;;;;;;4993344;28;20270;-80
2023/03/27 05:15:24;;;;;;;9.07;3.90;;;6.50;72.90;;;;;;5019089;28;20445;-82
2023/03/27 05:17:54;;;;;;;8.15;3.70;;;6.50;72.80;;;;;;5002821;28;20215;-81
2023/03/27 05:20:26;;;;;;;17.10;5.15;;;6.50;72.60;;;;;;5023550;28;20243;-80
2023/03/27 05:22:56;;;;;;;10.18;4.07;;;6.50;72.60;;;;;;5018203;28;20253;-81
2023/03/27 05:25:29;;;;;;;11.88;3.53;;;6.50;72.70;;;;;;5002877;28;20208;-80
2023/03/27 05:28:03;;;;;;;10.55;3.35;;;6.40;72.60;;;;;;5003119;28;20211;-81
2023/03/27 05:30:35;;;;;;;15.55;3.80;;;6.40;72.70;;;;;;5018873;28;20226;-81
2023/03/27 05:33:22;;;;;;;10.13;3.25;;;6.40;72.70;;;;;;5019038;28;20226;-80
2023/03/27 05:35:53;;;;;;;15.75;3.83;;;6.30;72.70;;;;;;5024782;28;20222;-81
2023/03/27 05:38:23;;;;;;;16.13;3.20;;;6.20;72.70;;;;;;5018642;28;20264;-81
2023/03/27 05:40:57;;;;;;;19.70;3.58;;;6.20;72.50;;;;;;5015737;28;20292;-80
2023/03/27 05:43:26;;;;;;;13.18;3.40;;;6.10;72.70;;;;;;4996860;28;20567;-81
2023/03/27 05:45:54;;;;;;;18.13;4.28;;;6.10;72.50;;;;;;4995267;28;20208;-80
2023/03/27 05:48:22;;;;;;;13.38;3.53;;;6.00;72.40;;;;;;5019931;28;20212;-81
2023/03/27 05:50:53;;;;;;;8.68;2.78;;;6.00;72.60;;;;;;4999831;28;20252;-80
2023/03/27 05:53:23;;;;;;;13.50;3.00;;;6.10;72.80;;;;;;5016953;28;20208;-81
2023/03/27 05:56:15;;;;;;;7.35;2.80;;;6.10;72.70;;;;;;5018333;28;20614;-81
2023/03/27 05:59:00;;;;;;;9.95;3.45;;;6.10;72.60;;;;;;4997350;28;20233;-80
2023/03/27 06:01:29;;;;;;;10.90;3.15;;;6.20;72.40;;;;;;5024253;28;20242;-80
2023/03/27 06:03:59;;;;;;;7.95;2.80;;;6.20;72.40;;;;;;5009219;28;20236;-81
2023/03/27 06:06:33;;;;;;;17.58;3.40;;;6.10;72.10;;;;;;5025962;28;20194;-81
2023/03/27 06:09:04;;;;;;;13.15;3.47;;;5.90;71.80;;;;;;5007291;28;20296;-80
2023/03/27 06:11:33;;;;;;;7.55;2.50;;;6.00;72.20;;;;;;5015163;28;20257;-80
2023/03/27 06:14:02;;;;;;;6.32;2.42;;;6.00;72.30;;;;;;5011933;28;20209;-80
2023/03/27 06:16:47;;;;;;;8.23;2.40;;;6.10;72.30;;;;;;4995344;28;20219;-81
2023/03/27 06:19:38;;;;;;;7.38;2.30;;;6.10;72.10;;;;;;5013625;28;20211;-81
2023/03/27 06:22:08;;;;;;;11.20;3.50;;;6.10;72.00;;;;;;5001423;28;20345;-81
2023/03/27 06:24:37;;;;;;;11.77;2.53;;;6.10;71.80;;;;;;5012201;28;20192;-81
2023/03/27 06:27:07;;;;;;;11.38;2.38;;;6.10;71.80;;;;;;4995989;28;20259;-80
2023/03/27 06:29:37;;;;;;;8.35;2.17;;;6.10;71.90;;;;;;5007009;28;20205;-81
2023/03/27 06:32:06;;;;;;;10.40;2.63;;;6.20;71.80;;;;;;4994380;28;20241;-81
2023/03/27 06:34:40;;;;;;;10.38;2.60;;;6.30;71.70;;;;;;5000830;28;20207;-81
2023/03/27 06:37:32;;;;;;;10.43;3.28;;;6.30;71.40;;;;;;4999737;28;20293;-81
2023/03/27 06:40:00;;;;;;;8.70;2.85;;;6.10;70.90;;;;;;5016491;28;20212;-81
2023/03/27 06:42:29;;;;;;;8.77;2.40;;;6.10;71.20;;;;;;5009666;28;20290;-80
2023/03/27 06:45:21;;;;;;;5.82;1.90;;;6.20;71.30;;;;;;5000013;28;20241;-80
2023/03/27 06:48:28;;;;;;;11.85;2.80;;;6.10;71.20;;;;;;4960215;28;20207;-81
2023/03/27 06:50:59;;;;;;;6.65;2.08;;;6.20;71.20;;;;;;4960453;28;20205;-81
2023/03/27 06:53:29;;;;;;;11.15;3.08;;;6.30;71.10;;;;;;4985799;28;20213;-80
2023/03/27 06:56:04;;;;;;;11.77;2.80;;;6.40;71.00;;;;;;5012713;28;20218;-80
2023/03/27 06:58:52;;;;;;;9.88;2.10;;;6.30;70.60;;;;;;5007352;28;20234;-80
2023/03/27 07:01:29;;;;;;;5.95;2.17;;;6.30;70.70;;;;;;5015562;28;20279;-81
2023/03/27 07:04:12;;;;;;;8.52;2.83;;;6.30;70.50;;;;;;4997861;28;20215;-80
2023/03/27 07:06:51;;;;;;;10.38;2.05;;;6.20;70.20;;;;;;5013328;28;20199;-80
2023/03/27 07:09:20;;;;;;;15.18;3.00;;;6.20;70.30;;;;;;5010582;28;20601;-80
2023/03/27 07:12:00;;;;;;;10.52;2.65;;;6.10;70.00;;;;;;5014237;28;20583;-80
2023/03/27 07:14:28;;;;;;;8.23;2.60;;;6.20;70.30;;;;;;5012833;28;20261;-80
2023/03/27 07:16:57;;;;;;;13.75;2.78;;;6.10;69.80;;;;;;5007487;28;20993;-81
2023/03/27 07:19:30;;;;;;;9.45;2.00;;;6.10;70.00;;;;;;5014137;28;20229;-80
2023/03/27 07:22:05;;;;;;;10.32;2.38;;;6.30;70.10;;;;;;5012959;28;20252;-80
2023/03/27 07:24:37;;;;;;;7.03;2.13;;;6.40;70.00;;;;;;4999189;28;20209;-81
2023/03/27 07:27:08;;;;;;;7.65;2.10;;;6.40;69.80;;;;;;5016507;28;20199;-80
2023/03/27 07:29:36;;;;;;;6.78;2.00;;;6.50;69.80;;;;;;5009816;28;20213;-81
2023/03/27 07:32:06;;;;;;;8.48;2.08;;;6.60;69.80;;;;;;5013812;28;20282;-81
2023/03/27 07:34:47;;;;;;;11.07;2.00;;;6.60;69.30;;;;;;5011647;28;20270;-79
2023/03/27 07:37:27;;;;;;;6.15;1.90;;;6.60;69.40;;;;;;5013605;28;20206;-79
2023/03/27 07:40:21;;;;;;;10.48;2.10;;;6.70;69.50;;;;;;5008220;28;20213;-80
2023/03/27 07:43:25;;;;;;;5.15;1.80;;;6.80;69.10;;;;;;5007070;28;20293;-79
2023/03/27 07:45:56;;;;;;;7.00;2.30;;;6.70;68.90;;;;;;5013096;28;20206;-79
2023/03/27 07:48:26;;;;;;;5.80;1.65;;;6.60;68.80;;;;;;4997177;28;20249;-79
2023/03/27 07:50:58;;;;;;;9.73;2.00;;;6.60;68.60;;;;;;5011887;28;20286;-79
2023/03/27 07:53:40;;;;;;;7.15;2.33;;;6.50;68.50;;;;;;5011667;28;20248;-79
2023/03/27 07:56:26;;;;;;;8.43;2.20;;;6.50;68.60;;;;;;5014283;28;20206;-79
2023/03/27 07:59:11;;;;;;;11.77;1.83;;;6.30;68.50;;;;;;4993687;28;20577;-79
2023/03/27 08:01:41;;;;;;;6.90;2.17;;;6.30;68.50;;;;;;5018342;28;20251;-79
2023/03/27 08:04:09;;;;;;;5.22;1.83;;;6.40;68.70;;;;;;5012381;28;20210;-79
2023/03/27 08:06:41;;;;;;;7.35;1.90;;;6.50;68.30;;;;;;5014660;28;20259;-79
2023/03/27 08:09:14;;;;;;;8.82;2.30;;;6.60;68.50;;;;;;5018424;28;20210;-79
2023/03/27 08:11:43;;;;;;;16.05;2.47;;;6.80;68.30;;;;;;5009181;28;20203;-79
2023/03/27 08:14:11;;;;;;;5.93;2.20;;;6.80;68.10;;;;;;5012777;28;20208;-78
2023/03/27 08:16:39;;;;;;;5.95;2.00;;;6.80;68.00;;;;;;5009858;28;20208;-79
2023/03/27 08:19:10;;;;;;;12.68;2.30;;;6.80;67.70;;;;;;5009579;28;20216;-79
2023/03/27 08:21:43;;;;;;;5.95;1.80;;;6.80;67.80;;;;;;5013879;28;20213;-79
2023/03/27 08:24:10;;;;;;;7.50;1.98;;;6.90;68.10;;;;;;4999371;28;20263;-79
2023/03/27 08:27:09;;;;;;;9.32;2.10;;;7.10;68.00;;;;;;4993323;28;20303;-79
2023/03/27 08:29:43;;;;;;;9.15;2.63;;;7.10;67.60;;;;;;4995238;28;20232;-79
2023/03/27 08:32:11;;;;;;;6.70;2.00;;;7.10;67.50;;;;;;5007528;28;20227;-80
2023/03/27 08:34:42;;;;;;;7.53;2.38;;;6.90;67.10;;;;;;5017001;28;20200;-79
2023/03/27 08:37:11;;;;;;;16.55;2.85;;;6.90;67.50;;;;;;5012546;28;20276;-79
2023/03/27 08:39:50;;;;;;;10.30;2.08;;;6.90;67.50;;;;;;5017205;28;20274;-79
2023/03/27 08:42:26;;;;;;;10.18;2.65;;;6.90;67.30;;;;;;5015941;28;20224;-78
2023/03/27 08:44:55;;;;;;;7.40;2.05;;;6.80;67.00;;;;;;5015834;28;20212;-79
2023/03/27 08:47:41;;;;;;;8.65;2.15;;;6.80;67.20;;;;;;5018138;28;20770;-79
2023/03/27 08:50:27;;;;;;;11.93;2.35;;;6.80;67.10;;;;;;4996602;28;20227;-79
2023/03/27 08:53:17;;;;;;;5.38;1.60;;;6.80;67.20;;;;;;5008924;28;20204;-79
2023/03/27 08:55:45;;;;;;;5.60;2.22;;;6.90;67.30;;;;;;5010868;28;20204;-79
2023/03/27 08:58:37;;;;;;;11.55;2.22;;;7.00;67.10;;;;;;5012743;28;20211;-79
2023/03/27 09:01:21;;;;;;;8.27;2.00;;;7.00;66.80;;;;;;5010361;28;20240;-79
2023/03/27 09:03:55;;;;;;;6.47;1.73;;;7.00;66.70;;;;;;5015669;28;20221;-79
2023/03/27 09:06:27;;;;;;;8.32;2.65;;;7.00;66.30;;;;;;5009765;28;20204;-79
2023/03/27 09:09:08;;;;;;;7.13;1.98;;;7.10;65.90;;;;;;5013190;28;20237;-79
2023/03/27 09:11:49;;;;;;;8.32;2.03;;;7.00;66.00;;;;;;5010201;28;20216;-79
2023/03/27 09:14:30;;;;;;;9.55;2.60;;;7.10;66.30;;;;;;5010174;28;20236;-79
2023/03/27 09:17:04;;;;;;;5.80;1.70;;;7.10;66.30;;;;;;5009957;28;20213;-79
2023/03/27 09:19:44;;;;;;;9.32;1.75;;;7.00;65.80;;;;;;5011620;28;20234;-79
2023/03/27 09:22:22;;;;;;;9.52;1.83;;;7.00;66.00;;;;;;5009417;28;20698;-79
2023/03/27 09:25:23;;;;;;;11.68;1.92;;;7.00;66.10;;;;;;5009178;28;20296;-79
2023/03/27 09:28:19;;;;;;;7.30;1.80;;;7.10;66.20;;;;;;5010391;28;20251;-79
2023/03/27 09:31:00;;;;;;;20.45;2.30;;;7.10;65.60;;;;;;5018303;28;20229;-79
2023/03/27 09:33:40;;;;;;;5.78;1.88;;;7.30;66.00;;;;;;5013576;28;20227;-79
2023/03/27 09:36:08;;;;;;;11.57;2.20;;;7.40;65.80;;;;;;5014507;28;20774;-79
2023/03/27 09:38:41;;;;;;;7.63;1.70;;;7.30;65.00;;;;;;5000830;28;20482;-79
2023/03/27 09:41:20;;;;;;;5.97;1.70;;;7.40;65.10;;;;;;4999820;28;20230;-79
2023/03/27 09:43:57;;;;;;;9.43;2.20;;;7.50;65.50;;;;;;5016269;28;20327;-79
2023/03/27 09:46:28;;;;;;;8.38;1.77;;;7.70;65.50;;;;;;4998779;28;20250;-79
2023/03/27 09:49:04;;;;;;;7.15;1.80;;;7.70;65.10;;;;;;5015292;28;20208;-81
2023/03/27 09:51:42;;;;;;;6.47;1.50;;;7.80;65.10;;;;;;5009534;28;20607;-82
2023/03/27 09:54:22;;;;;;;8.27;2.22;;;7.90;64.70;;;;;;5012893;28;20459;-84
2023/03/27 09:56:53;;;;;;;8.48;1.25;;;7.90;64.30;;;;;;5013670;28;20211;-84
2023/03/27 09:59:27;;;;;;;10.10;1.65;;;7.80;64.40;;;;;;5017966;28;20623;-84
2023/03/27 10:02:17;;;;;;;4.65;1.55;;;7.90;64.50;;;;;;4992758;28;20320;-84
2023/03/27 10:04:58;;;;;;;7.05;2.08;;;7.90;64.20;;;;;;4999607;28;20215;-85
2023/03/27 10:07:32;;;;;;;11.33;2.03;;;7.80;63.90;;;;;;4998915;28;20296;-85
2023/03/27 10:10:18;;;;;;;8.23;1.95;;;7.70;63.30;;;;;;5018523;28;21042;-83
2023/03/27 10:13:10;;;;;;;10.60;2.05;;;7.60;63.50;;;;;;5007367;28;20237;-85
2023/03/27 10:15:43;;;;;;;7.60;1.77;;;7.50;63.70;;;;;;5017770;28;20254;-85
2023/03/27 10:18:25;;;;;;;7.05;1.60;;;7.40;63.80;;;;;;5017563;28;20216;-84
2023/03/27 10:21:12;;;;;;;7.55;1.85;;;7.40;64.10;;;;;;5015281;28;20199;-81
2023/03/27 10:23:42;;;;;;;6.97;2.35;;;7.50;64.20;;;;;;5022370;28;20808;-84
2023/03/27 10:26:21;;;;;;;16.92;2.42;;;7.50;64.40;;;;;;5014642;28;20212;-83
2023/03/27 10:28:51;;;;;;;8.73;2.28;;;7.60;64.40;;;;;;5011965;28;20683;-83
2023/03/27 10:31:49;;;;;;;7.53;1.60;;;7.60;64.30;;;;;;5011786;28;20252;-84
2023/03/27 10:34:35;;;;;;;6.72;1.90;;;7.70;64.40;;;;;;4999048;28;20309;-83
2023/03/27 10:37:41;;;;;;;6.95;1.60;;;7.80;64.70;;;;;;4998498;28;20697;-82
2023/03/27 10:40:49;;;;;;;8.65;1.90;;;7.90;64.70;;;;;;5012796;28;20632;-83
2023/03/27 10:43:34;;;;;;;9.55;2.00;;;8.00;64.90;;;;;;5014916;28;20292;-84
2023/03/27 10:46:05;;;;;;;9.23;1.80;;;8.10;64.90;;;;;;5019346;28;20258;-82
2023/03/27 10:48:46;;;;;;;9.93;1.92;;;8.20;64.90;;;;;;5015454;28;20852;-83
2023/03/27 10:51:28;;;;;;;7.63;2.10;;;8.30;64.80;;;;;;5014471;28;20227;-84
2023/03/27 10:54:25;;;;;;;10.85;1.85;;;8.40;64.50;;;;;;5017128;28;20529;-84
2023/03/27 10:56:58;;;;;;;6.40;1.90;;;8.30;64.00;;;;;;5012524;28;20228;-85
2023/03/27 10:59:29;;;;;;;9.70;1.80;;;8.30;63.90;;;;;;5008504;28;20480;-83
2023/03/27 11:02:18;;;;;;;7.40;1.50;;;8.30;63.60;;;;;;5017901;28;21023;-83
2023/03/27 11:04:53;;;;;;;4.07;1.20;;;8.30;63.30;;;;;;5019015;28;20483;-82
2023/03/27 11:07:32;;;;;;;8.10;1.38;;;8.20;62.00;;;;;;5015498;28;20738;-83
2023/03/27 11:10:11;;;;;;;5.55;1.50;;;8.20;62.10;;;;;;5015951;28;20215;-83
2023/03/27 11:12:41;;;;;;;4.80;1.50;;;8.30;62.90;;;;;;4998989;28;20799;-85
2023/03/27 11:15:14;;;;;;;10.10;2.07;;;8.50;63.10;;;;;;5005594;28;20456;-83
2023/03/27 11:17:49;;;;;;;6.30;1.80;;;8.60;63.20;;;;;;5012112;28;20469;-83
2023/03/27 11:20:44;;;;;;;12.93;2.37;;;8.70;63.20;;;;;;5016300;28;20468;-84
2023/03/27 11:23:30;;;;;;;6.50;1.90;;;8.70;63.10;;;;;;5016518;28;20480;-82
2023/03/27 11:26:25;;;;;;;6.80;1.60;;;8.70;63.10;;;;;;5011945;28;21242;-83
2023/03/27 11:29:00;;;;;;;8.50;1.97;;;8.60;63.10;;;;;;5013535;28;20460;-83
2023/03/27 11:31:44;;;;;;;5.47;1.73;;;8.60;63.20;;;;;;5007356;28;20764;-84
2023/03/27 11:34:20;;;;;;;5.03;1.63;;;8.60;63.10;;;;;;5013667;28;20211;-84
2023/03/27 11:37:16;;;;;;;4.80;1.30;;;8.60;63.30;;;;;;5005991;28;20495;-82
2023/03/27 11:39:52;;;;;;;7.73;1.60;;;8.50;63.50;;;;;;4999451;28;21126;-83
2023/03/27 11:42:23;;;;;;;5.07;1.30;;;8.50;63.70;;;;;;5012105;28;20463;-83
2023/03/27 11:44:52;;;;;;;5.20;1.30;;;8.50;63.80;;;;;;5005623;28;20469;-82
2023/03/27 11:47:50;;;;;;;5.85;1.45;;;8.40;63.80;;;;;;5011426;28;20473;-82
2023/03/27 11:50:26;;;;;;;6.40;1.70;;;8.40;64.00;;;;;;5016731;28;20281;-83
2023/03/27 11:53:03;;;;;;;6.83;1.07;;;8.40;64.20;;;;;;5008065;28;20513;-82
2023/03/27 11:56:09;;;;;;;6.50;1.30;;;8.50;64.20;;;;;;5013458;28;20452;-82
2023/03/27 11:58:57;;;;;;;5.70;1.10;;;8.40;63.90;;;;;;5013132;28;20467;-82
2023/03/27 12:01:34;;;;;;;4.47;1.10;;;8.30;64.10;;;;;;5001400;28;20463;-83
2023/03/27 12:04:20;;;;;;;8.63;1.45;;;8.30;64.30;;;;;;4998482;28;20743;-82
2023/03/27 12:07:17;;;;;;;5.23;1.43;;;8.40;64.50;;;;;;5012936;28;20213;-82
2023/03/27 12:10:18;;;;;;;5.00;1.37;;;8.50;64.60;;;;;;5012259;28;20552;-83
2023/03/27 12:13:34;;;;;;;5.33;1.83;;;8.60;64.60;;;;;;5012012;28;20462;-81
2023/03/27 12:16:34;;;;;;;6.00;1.40;;;8.60;64.70;;;;;;5013315;28;20450;-81
2023/03/27 12:19:18;;;;;;;6.32;1.45;;;8.80;64.70;;;;;;5003907;28;20471;-82
2023/03/27 12:22:22;;;;;;;6.40;1.77;;;8.90;64.50;;;;;;5006214;28;20209;-83
2023/03/27 12:25:18;;;;;;;4.70;1.53;;;8.90;64.70;;;;;;5009447;28;20664;-83
2023/03/27 12:28:22;;;;;;;6.30;1.10;;;9.00;64.20;;;;;;5009284;28;20535;-83
2023/03/27 12:31:22;;;;;;;9.83;1.60;;;9.00;64.30;;;;;;5006484;28;20504;-82
2023/03/27 12:34:00;;;;;;;5.87;1.23;;;8.90;64.10;;;;;;5008989;28;20452;-83
2023/03/27 12:36:37;;;;;;;8.77;1.20;;;8.90;64.10;;;;;;4996054;28;20456;-81
2023/03/27 12:39:15;;;;;;;3.33;1.03;;;8.90;64.10;;;;;;5016712;28;20572;-80
2023/03/27 12:41:44;;;;;;;10.23;1.33;;;9.00;64.00;;;;;;5008708;28;20983;-81
2023/03/27 12:45:02;;;;;;;5.10;1.30;;;9.00;64.00;;;;;;5005505;28;20468;-81
2023/03/27 12:47:31;;;;;;;4.70;1.03;;;9.10;64.00;;;;;;5006601;28;20468;-81
2023/03/27 12:50:18;;;;;;;5.10;1.57;;;9.10;63.90;;;;;;4998159;28;20491;-82
2023/03/27 12:52:48;;;;;;;4.60;1.27;;;9.20;63.90;;;;;;5000504;28;20468;-82
2023/03/27 12:55:34;;;;;;;6.83;1.40;;;9.20;64.10;;;;;;4994452;28;20449;-81
2023/03/27 12:58:05;;;;;;;4.87;1.43;;;9.30;64.00;;;;;;5009555;28;20463;-82
2023/03/27 13:01:08;;;;;;;6.93;1.07;;;9.30;63.90;;;;;;4992790;28;20489;-82
2023/03/27 13:04:15;;;;;;;4.93;1.40;;;9.30;63.90;;;;;;5010247;28;20468;-82
2023/03/27 13:06:52;;;;;;;4.83;1.37;;;9.40;63.90;;;;;;5015367;28;20523;-81
2023/03/27 13:09:38;;;;;;;7.93;1.70;;;9.50;63.90;;;;;;5013834;28;20489;-82
2023/03/27 13:12:46;;;;;;;7.80;1.27;;;9.60;63.90;;;;;;5013548;28;20461;-81
2023/03/27 13:15:29;;;;;;;5.27;1.20;;;9.60;63.80;;;;;;4976217;28;20467;-80
2023/03/27 13:18:25;;;;;;;5.63;1.27;;;9.70;63.30;;;;;;4993552;28;20985;-83
2023/03/27 13:21:06;;;;;;;7.03;1.30;;;9.70;62.70;;;;;;5007219;28;20468;-82
2023/03/27 13:23:54;;;;;;;6.90;1.53;;;9.60;62.10;;;;;;5010766;28;20459;-84
2023/03/27 13:26:43;;;;;;;6.77;1.27;;;9.50;61.30;;;;;;5011066;28;20480;-82
2023/03/27 13:29:18;;;;;;;4.33;1.30;;;9.40;61.80;;;;;;5011396;28;20499;-83
2023/03/27 13:31:59;;;;;;;3.77;1.27;;;9.30;61.90;;;;;;5009526;28;20496;-84
2023/03/27 13:35:08;;;;;;;4.90;1.10;;;9.30;61.40;;;;;;4998785;28;20740;-83
2023/03/27 13:37:47;;;;;;;5.57;1.07;;;9.30;61.50;;;;;;5014222;28;20468;-82
2023/03/27 13:40:25;;;;;;;6.17;1.20;;;9.30;61.20;;;;;;4997295;28;20514;-84
2023/03/27 13:43:23;;;;;;;5.10;1.10;;;9.30;60.90;;;;;;5016675;28;20452;-84
2023/03/27 13:46:00;;;;;;;3.87;1.00;;;9.20;60.40;;;;;;5001883;28;20787;-84
2023/03/27 13:49:16;;;;;;;4.73;1.00;;;9.20;60.50;;;;;;4999167;28;20884;-82
2023/03/27 13:52:21;;;;;;;3.67;1.40;;;9.20;60.00;;;;;;5012525;28;20823;-83